sensor_id;sensor_type;location;lat;lon;timestamp;pressure;altitude;pressure_sealevel;temperature;humidity
40954;BME280;26686;50.130;8.710;2023-02-13T00:01:34;102294.41;;;9.09;75.30
40954;BME280;26686;50.130;8.710;2023-02-13T00:06:36;102311.03;;;9.14;75.31
40954;BME280;26686;50.130;8.710;2023-02-13T00:11:37;102293.56;;;9.09;75.41
40954;BME280;26686;50.130;8.710;2023-02-13T00:16:38;102290.28;;;9.02;75.55
40954;BME280;26686;50.130;8.710;2023-02-13T00:21:40;102310.91;;;9.17;75.74
40954;BME280;26686;50.130;8.710;2023-02-13T00:26:41;102295.09;;;9.14;75.47
40954;BME280;26686;50.130;8.710;2023-02-13T00:31:43;102302.19;;;9.14;75.80
40954;BME280;26686;50.130;8.710;2023-02-13T00:36:44;102299.47;;;9.15;75.68
40954;BME280;26686;50.130;8.710;2023-02-13T00:41:45;102300.59;;;9.10;75.66
40954;BME280;26686;50.130;8.710;2023-02-13T00:46:47;102298.59;;;9.15;75.76
40954;BME280;26686;50.130;8.710;2023-02-13T00:51:48;102297.75;;;9.14;75.59
40954;BME280;26686;50.130;8.710;2023-02-13T00:56:50;102282.44;;;8.99;75.46
40954;BME280;26686;50.130;8.710;2023-02-13T01:01:52;102290.78;;;8.90;76.11
40954;BME280;26686;50.130;8.710;2023-02-13T01:06:53;102290.41;;;8.99;76.07
40954;BME280;26686;50.130;8.710;2023-02-13T01:11:55;102291.34;;;8.98;75.84
40954;BME280;26686;50.130;8.710;2023-02-13T01:16:56;102285.34;;;8.93;75.89
40954;BME280;26686;50.130;8.710;2023-02-13T01:21:57;102281.84;;;8.92;75.76
40954;BME280;26686;50.130;8.710;2023-02-13T01:26:59;102275.75;;;8.89;75.49
40954;BME280;26686;50.130;8.710;2023-02-13T01:32:02;102268.88;;;8.84;75.37
40954;BME280;26686;50.130;8.710;2023-02-13T01:37:05;102287.75;;;8.99;75.15
40954;BME280;26686;50.130;8.710;2023-02-13T01:42:15;102294.78;;;9.00;74.95
40954;BME280;26686;50.130;8.710;2023-02-13T01:47:23;102279.00;;;8.97;74.75
40954;BME280;26686;50.130;8.710;2023-02-13T01:52:25;102280.91;;;8.93;74.56
40954;BME280;26686;50.130;8.710;2023-02-13T01:57:27;102274.91;;;8.88;74.52
40954;BME280;26686;50.130;8.710;2023-02-13T02:02:34;102266.41;;;8.80;74.36
40954;BME280;26686;50.130;8.710;2023-02-13T02:07:38;102280.97;;;8.70;74.78
40954;BME280;26686;50.130;8.710;2023-02-13T02:12:49;102269.59;;;8.66;74.53
40954;BME280;26686;50.130;8.710;2023-02-13T02:17:52;102264.13;;;8.48;74.94
40954;BME280;26686;50.130;8.710;2023-02-13T02:33:40;102267.19;;;8.38;75.40
40954;BME280;26686;50.130;8.710;2023-02-13T02:49:35;102273.06;;;8.22;75.43
40954;BME280;26686;50.130;8.710;2023-02-13T03:00:19;102249.16;;;8.00;76.30
40954;BME280;26686;50.130;8.710;2023-02-13T03:05:43;102230.34;;;7.83;76.22
40954;BME280;26686;50.130;8.710;2023-02-13T03:11:05;102266.91;;;7.98;76.82
40954;BME280;26686;50.130;8.710;2023-02-13T03:16:25;102263.56;;;7.93;76.48
40954;BME280;26686;50.130;8.710;2023-02-13T03:21:47;102277.69;;;7.93;76.38
40954;BME280;26686;50.130;8.710;2023-02-13T03:27:37;102272.84;;;7.81;76.72
40954;BME280;26686;50.130;8.710;2023-02-13T03:44:00;102272.97;;;7.53;78.06
40954;BME280;26686;50.130;8.710;2023-02-13T03:49:11;102273.13;;;7.48;77.55
40954;BME280;26686;50.130;8.710;2023-02-13T03:54:45;102270.75;;;7.40;78.05
40954;BME280;26686;50.130;8.710;2023-02-13T04:00:10;102274.53;;;7.33;78.21
40954;BME280;26686;50.130;8.710;2023-02-13T04:05:16;102273.66;;;7.33;78.26
40954;BME280;26686;50.130;8.710;2023-02-13T04:10:21;102272.88;;;7.29;78.54
40954;BME280;26686;50.130;8.710;2023-02-13T04:15:32;102279.06;;;7.30;79.03
40954;BME280;26686;50.130;8.710;2023-02-13T04:20:37;102269.72;;;7.19;79.53
40954;BME280;26686;50.130;8.710;2023-02-13T04:25:40;102273.09;;;7.23;79.69
40954;BME280;26686;50.130;8.710;2023-02-13T04:30:43;102274.31;;;7.13;79.99
40954;BME280;26686;50.130;8.710;2023-02-13T04:35:45;102276.88;;;7.16;80.28
40954;BME280;26686;50.130;8.710;2023-02-13T04:40:46;102279.41;;;7.19;79.97
40954;BME280;26686;50.130;8.710;2023-02-13T04:45:48;102270.81;;;7.12;79.99
40954;BME280;26686;50.130;8.710;2023-02-13T04:50:50;102263.78;;;7.11;79.78
40954;BME280;26686;50.130;8.710;2023-02-13T04:55:51;102258.06;;;6.98;80.28
40954;BME280;26686;50.130;8.710;2023-02-13T05:00:53;102273.78;;;7.03;80.47
40954;BME280;26686;50.130;8.710;2023-02-13T05:05:55;102252.75;;;6.98;80.14
40954;BME280;26686;50.130;8.710;2023-02-13T05:10:56;102271.25;;;7.00;80.26
40954;BME280;26686;50.130;8.710;2023-02-13T05:15:58;102277.59;;;6.94;80.58
40954;BME280;26686;50.130;8.710;2023-02-13T05:21:00;102282.00;;;6.95;80.35
40954;BME280;26686;50.130;8.710;2023-02-13T05:26:20;102274.38;;;6.84;80.47
40954;BME280;26686;50.130;8.710;2023-02-13T05:31:21;102279.06;;;6.76;81.11
40954;BME280;26686;50.130;8.710;2023-02-13T05:36:23;102266.28;;;6.62;81.15
40954;BME280;26686;50.130;8.710;2023-02-13T05:41:24;102267.03;;;6.66;81.63
40954;BME280;26686;50.130;8.710;2023-02-13T05:46:26;102278.56;;;6.63;81.15
40954;BME280;26686;50.130;8.710;2023-02-13T05:51:27;102276.31;;;6.51;81.57
40954;BME280;26686;50.130;8.710;2023-02-13T05:56:29;102285.41;;;6.42;81.65
40954;BME280;26686;50.130;8.710;2023-02-13T06:01:30;102279.03;;;6.19;81.96
40954;BME280;26686;50.130;8.710;2023-02-13T06:06:32;102292.22;;;6.21;82.55
40954;BME280;26686;50.130;8.710;2023-02-13T06:11:34;102272.38;;;6.06;82.97
40954;BME280;26686;50.130;8.710;2023-02-13T06:16:35;102260.44;;;5.91;83.48
40954;BME280;26686;50.130;8.710;2023-02-13T06:21:37;102280.47;;;6.00;83.44
40954;BME280;26686;50.130;8.710;2023-02-13T06:26:39;102274.66;;;5.87;83.81
40954;BME280;26686;50.130;8.710;2023-02-13T06:31:40;102279.03;;;5.88;83.94
40954;BME280;26686;50.130;8.710;2023-02-13T06:36:42;102273.22;;;5.75;84.04
40954;BME280;26686;50.130;8.710;2023-02-13T06:41:43;102268.97;;;5.70;83.70
40954;BME280;26686;50.130;8.710;2023-02-13T06:46:44;102283.66;;;5.80;83.52
40954;BME280;26686;50.130;8.710;2023-02-13T06:51:46;102277.66;;;5.73;83.34
40954;BME280;26686;50.130;8.710;2023-02-13T06:56:47;102293.50;;;5.75;83.35
40954;BME280;26686;50.130;8.710;2023-02-13T07:01:49;102294.38;;;5.75;83.22
40954;BME280;26686;50.130;8.710;2023-02-13T07:06:53;102285.91;;;5.62;83.61
40954;BME280;26686;50.130;8.710;2023-02-13T07:11:55;102294.47;;;5.72;83.33
40954;BME280;26686;50.130;8.710;2023-02-13T07:16:56;102309.44;;;5.72;83.09
40954;BME280;26686;50.130;8.710;2023-02-13T07:21:58;102310.28;;;5.74;83.10
40954;BME280;26686;50.130;8.710;2023-02-13T07:27:00;102303.03;;;5.80;82.79
40954;BME280;26686;50.130;8.710;2023-02-13T07:32:01;102298.53;;;5.84;82.72
40954;BME280;26686;50.130;8.710;2023-02-13T07:37:03;102305.06;;;6.04;82.00
40954;BME280;26686;50.130;8.710;2023-02-13T07:42:05;102311.03;;;6.10;81.69
40954;BME280;26686;50.130;8.710;2023-02-13T07:47:06;102314.25;;;6.22;81.16
40954;BME280;26686;50.130;8.710;2023-02-13T07:52:08;102313.03;;;6.32;80.25
40954;BME280;26686;50.130;8.710;2023-02-13T07:57:09;102310.09;;;6.43;79.89
40954;BME280;26686;50.130;8.710;2023-02-13T08:02:12;102320.41;;;6.52;79.31
40954;BME280;26686;50.130;8.710;2023-02-13T08:07:17;102299.22;;;6.52;78.95
40954;BME280;26686;50.130;8.710;2023-02-13T08:12:19;102271.84;;;6.53;78.18
40954;BME280;26686;50.130;8.710;2023-02-13T08:17:21;102316.50;;;6.92;77.71
40954;BME280;26686;50.130;8.710;2023-02-13T08:22:22;102307.53;;;6.96;77.01
40954;BME280;26686;50.130;8.710;2023-02-13T08:27:23;102334.19;;;7.18;76.43
40954;BME280;26686;50.130;8.710;2023-02-13T08:32:25;102330.56;;;7.21;76.40
40954;BME280;26686;50.130;8.710;2023-02-13T08:37:26;102325.81;;;7.31;75.77
40954;BME280;26686;50.130;8.710;2023-02-13T08:42:28;102326.84;;;7.26;75.52
40954;BME280;26686;50.130;8.710;2023-02-13T08:47:29;102346.53;;;7.44;75.45
40954;BME280;26686;50.130;8.710;2023-02-13T08:52:30;102328.03;;;7.43;75.51
40954;BME280;26686;50.130;8.710;2023-02-13T08:57:32;102330.25;;;7.57;74.88
40954;BME280;26686;50.130;8.710;2023-02-13T09:02:33;102323.09;;;7.59;74.09
40954;BME280;26686;50.130;8.710;2023-02-13T09:07:35;102336.53;;;7.79;73.38
40954;BME280;26686;50.130;8.710;2023-02-13T09:12:36;102332.50;;;7.93;72.62
40954;BME280;26686;50.130;8.710;2023-02-13T09:17:38;102336.00;;;8.42;71.25
40954;BME280;26686;50.130;8.710;2023-02-13T09:22:40;102332.88;;;8.78;69.62
40954;BME280;26686;50.130;8.710;2023-02-13T09:27:41;102333.03;;;9.18;67.61
40954;BME280;26686;50.130;8.710;2023-02-13T09:32:43;102335.25;;;9.49;66.00
40954;BME280;26686;50.130;8.710;2023-02-13T09:37:44;102314.50;;;9.78;65.20
40954;BME280;26686;50.130;8.710;2023-02-13T09:42:46;102305.56;;;10.19;63.19
40954;BME280;26686;50.130;8.710;2023-02-13T09:47:49;102320.94;;;10.71;61.24
40954;BME280;26686;50.130;8.710;2023-02-13T09:52:51;102319.69;;;11.14;59.63
40954;BME280;26686;50.130;8.710;2023-02-13T09:58:02;102320.69;;;11.82;57.32
40954;BME280;26686;50.130;8.710;2023-02-13T10:03:18;102316.44;;;12.61;54.72
40954;BME280;26686;50.130;8.710;2023-02-13T10:19:27;102325.56;;;18.27;40.88
40954;BME280;26686;50.130;8.710;2023-02-13T10:24:58;102327.88;;;18.54;39.14
40954;BME280;26686;50.130;8.710;2023-02-13T10:30:48;102314.03;;;17.79;39.61
40954;BME280;26686;50.130;8.710;2023-02-13T10:35:30;102318.91;;;17.63;40.68
40954;BME280;26686;50.130;8.710;2023-02-13T10:40:38;102318.25;;;18.06;39.66
40954;BME280;26686;50.130;8.710;2023-02-13T10:45:55;102310.81;;;19.72;36.90
40954;BME280;26686;50.130;8.710;2023-02-13T10:51:04;102288.16;;;22.92;32.29
40954;BME280;26686;50.130;8.710;2023-02-13T10:56:23;102300.09;;;25.15;27.86
40954;BME280;26686;50.130;8.710;2023-02-13T11:06:51;102274.16;;;27.55;23.71
40954;BME280;26686;50.130;8.710;2023-02-13T11:11:54;102266.22;;;29.00;22.82
40954;BME280;26686;50.130;8.710;2023-02-13T11:17:05;102253.66;;;28.47;22.26
40954;BME280;26686;50.130;8.710;2023-02-13T11:22:11;102248.72;;;29.22;21.10
40954;BME280;26686;50.130;8.710;2023-02-13T11:27:13;102247.28;;;30.58;20.83
40954;BME280;26686;50.130;8.710;2023-02-13T11:32:23;102232.50;;;30.99;19.22
40954;BME280;26686;50.130;8.710;2023-02-13T11:37:27;102225.22;;;31.65;18.58
40954;BME280;26686;50.130;8.710;2023-02-13T11:42:34;102212.09;;;32.13;18.27
40954;BME280;26686;50.130;8.710;2023-02-13T11:47:39;102218.44;;;32.77;17.42
40954;BME280;26686;50.130;8.710;2023-02-13T11:52:41;102207.03;;;33.79;16.67
40954;BME280;26686;50.130;8.710;2023-02-13T11:57:55;102204.56;;;33.71;16.06
40954;BME280;26686;50.130;8.710;2023-02-13T12:02:56;102201.34;;;33.37;16.42
40954;BME280;26686;50.130;8.710;2023-02-13T12:07:59;102196.94;;;34.04;15.24
40954;BME280;26686;50.130;8.710;2023-02-13T12:13:13;102188.56;;;34.52;15.48
40954;BME280;26686;50.130;8.710;2023-02-13T12:18:22;102201.44;;;34.70;14.75
40954;BME280;26686;50.130;8.710;2023-02-13T12:23:32;102198.00;;;35.22;14.65
40954;BME280;26686;50.130;8.710;2023-02-13T12:28:45;102183.34;;;35.10;14.62
40954;BME280;26686;50.130;8.710;2023-02-13T12:39:24;102174.78;;;36.34;13.22
40954;BME280;26686;50.130;8.710;2023-02-13T13:01:03;102143.09;;;36.80;12.56
40954;BME280;26686;50.130;8.710;2023-02-13T13:06:26;102136.81;;;37.52;11.91
40954;BME280;26686;50.130;8.710;2023-02-13T13:22:13;102125.75;;;35.77;13.20
40954;BME280;26686;50.130;8.710;2023-02-13T13:27:25;102125.88;;;36.78;12.47
40954;BME280;26686;50.130;8.710;2023-02-13T13:32:28;102128.03;;;36.59;12.60
40954;BME280;26686;50.130;8.710;2023-02-13T13:37:43;102117.94;;;36.02;12.73
40954;BME280;26686;50.130;8.710;2023-02-13T13:49:23;102107.25;;;35.94;12.36
40954;BME280;26686;50.130;8.710;2023-02-13T13:54:34;102103.41;;;35.66;12.19
40954;BME280;26686;50.130;8.710;2023-02-13T14:04:37;102097.81;;;34.61;12.80
40954;BME280;26686;50.130;8.710;2023-02-13T14:09:42;102085.44;;;34.87;13.25
40954;BME280;26686;50.130;8.710;2023-02-13T14:14:43;102092.78;;;34.58;13.04
40954;BME280;26686;50.130;8.710;2023-02-13T14:19:50;102095.78;;;34.57;13.75
40954;BME280;26686;50.130;8.710;2023-02-13T14:24:54;102092.94;;;33.48;14.33
40954;BME280;26686;50.130;8.710;2023-02-13T14:29:57;102086.50;;;34.39;13.76
40954;BME280;26686;50.130;8.710;2023-02-13T14:35:02;102083.97;;;34.38;14.15
40954;BME280;26686;50.130;8.710;2023-02-13T14:45:15;102070.72;;;34.16;14.60
40954;BME280;26686;50.130;8.710;2023-02-13T14:50:40;102071.13;;;33.77;14.26
40954;BME280;26686;50.130;8.710;2023-02-13T14:55:44;102066.31;;;32.87;15.08
40954;BME280;26686;50.130;8.710;2023-02-13T15:06:09;102063.34;;;31.81;16.13
40954;BME280;26686;50.130;8.710;2023-02-13T15:11:12;102049.06;;;31.65;16.21
40954;BME280;26686;50.130;8.710;2023-02-13T15:16:36;102045.91;;;26.76;20.63
40954;BME280;26686;50.130;8.710;2023-02-13T15:21:37;102044.94;;;25.22;22.47
40954;BME280;26686;50.130;8.710;2023-02-13T15:26:38;102046.09;;;21.63;26.83
40954;BME280;26686;50.130;8.710;2023-02-13T15:31:40;102053.09;;;19.34;30.18
40954;BME280;26686;50.130;8.710;2023-02-13T15:36:47;102049.38;;;18.10;32.58
40954;BME280;26686;50.130;8.710;2023-02-13T15:41:51;102055.69;;;17.10;34.39
40954;BME280;26686;50.130;8.710;2023-02-13T15:46:59;102048.03;;;16.70;35.49
40954;BME280;26686;50.130;8.710;2023-02-13T15:52:05;102054.75;;;16.29;36.00
40954;BME280;26686;50.130;8.710;2023-02-13T15:57:10;102019.94;;;15.67;37.19
40954;BME280;26686;50.130;8.710;2023-02-13T16:02:21;102036.81;;;15.19;37.96
40954;BME280;26686;50.130;8.710;2023-02-13T16:07:24;102053.25;;;15.02;38.66
40954;BME280;26686;50.130;8.710;2023-02-13T16:12:26;102058.41;;;14.79;39.41
40954;BME280;26686;50.130;8.710;2023-02-13T16:17:30;102069.22;;;14.65;39.53
40954;BME280;26686;50.130;8.710;2023-02-13T16:22:54;102056.84;;;14.37;40.61
40954;BME280;26686;50.130;8.710;2023-02-13T16:27:59;102066.97;;;13.91;41.42
40954;BME280;26686;50.130;8.710;2023-02-13T16:33:20;102069.19;;;13.85;41.33
40954;BME280;26686;50.130;8.710;2023-02-13T16:38:40;102068.03;;;13.47;41.69
40954;BME280;26686;50.130;8.710;2023-02-13T16:43:49;102072.13;;;13.24;42.52
40954;BME280;26686;50.130;8.710;2023-02-13T16:54:00;102087.78;;;13.01;43.01
40954;BME280;26686;50.130;8.710;2023-02-13T17:04:22;102094.03;;;12.57;44.30
40954;BME280;26686;50.130;8.710;2023-02-13T17:09:24;102094.78;;;12.45;44.88
40954;BME280;26686;50.130;8.710;2023-02-13T17:14:25;102087.06;;;12.24;45.28
40954;BME280;26686;50.130;8.710;2023-02-13T17:19:27;102103.44;;;12.18;45.86
40954;BME280;26686;50.130;8.710;2023-02-13T17:24:31;102108.16;;;12.13;46.05
40954;BME280;26686;50.130;8.710;2023-02-13T17:29:32;102119.56;;;12.00;46.70
40954;BME280;26686;50.130;8.710;2023-02-13T17:34:34;102114.03;;;11.88;47.58
40954;BME280;26686;50.130;8.710;2023-02-13T17:39:35;102110.31;;;11.58;48.30
40954;BME280;26686;50.130;8.710;2023-02-13T17:44:37;102109.63;;;11.55;49.08
40954;BME280;26686;50.130;8.710;2023-02-13T17:49:38;102128.97;;;11.58;49.17
40954;BME280;26686;50.130;8.710;2023-02-13T17:54:40;102111.50;;;11.37;49.46
40954;BME280;26686;50.130;8.710;2023-02-13T17:59:41;102128.25;;;11.39;50.01
40954;BME280;26686;50.130;8.710;2023-02-13T18:04:43;102127.13;;;11.27;49.98
40954;BME280;26686;50.130;8.710;2023-02-13T18:09:45;102114.69;;;11.10;50.62
40954;BME280;26686;50.130;8.710;2023-02-13T18:14:48;102129.88;;;11.08;51.05
40954;BME280;26686;50.130;8.710;2023-02-13T18:19:49;102134.63;;;10.85;52.12
40954;BME280;26686;50.130;8.710;2023-02-13T18:24:51;102132.69;;;10.71;52.84
40954;BME280;26686;50.130;8.710;2023-02-13T18:29:53;102125.47;;;10.56;53.46
40954;BME280;26686;50.130;8.710;2023-02-13T18:34:55;102114.72;;;10.40;53.95
40954;BME280;26686;50.130;8.710;2023-02-13T18:39:56;102132.59;;;10.38;54.41
40954;BME280;26686;50.130;8.710;2023-02-13T18:44:58;102111.44;;;10.16;54.75
40954;BME280;26686;50.130;8.710;2023-02-13T18:49:59;102130.00;;;10.17;55.15
40954;BME280;26686;50.130;8.710;2023-02-13T18:55:01;102138.22;;;10.13;55.58
40954;BME280;26686;50.130;8.710;2023-02-13T19:00:04;102148.31;;;10.06;55.64
40954;BME280;26686;50.130;8.710;2023-02-13T19:05:05;102127.44;;;9.97;55.89
40954;BME280;26686;50.130;8.710;2023-02-13T19:10:07;102093.28;;;9.70;56.11
40954;BME280;26686;50.130;8.710;2023-02-13T19:15:09;102135.09;;;9.85;56.46
40954;BME280;26686;50.130;8.710;2023-02-13T19:20:11;102105.75;;;9.68;56.69
40954;BME280;26686;50.130;8.710;2023-02-13T19:25:15;102130.22;;;9.76;57.10
40954;BME280;26686;50.130;8.710;2023-02-13T19:30:16;102139.63;;;9.64;57.30
40954;BME280;26686;50.130;8.710;2023-02-13T19:35:18;102140.41;;;9.47;58.20
40954;BME280;26686;50.130;8.710;2023-02-13T19:40:19;102131.13;;;9.37;58.39
40954;BME280;26686;50.130;8.710;2023-02-13T19:45:21;102138.44;;;9.32;58.58
40954;BME280;26686;50.130;8.710;2023-02-13T19:50:22;102142.97;;;9.30;58.92
40954;BME280;26686;50.130;8.710;2023-02-13T19:55:23;102145.47;;;9.33;58.90
40954;BME280;26686;50.130;8.710;2023-02-13T20:00:25;102123.25;;;9.15;59.25
40954;BME280;26686;50.130;8.710;2023-02-13T20:05:27;102133.16;;;9.11;59.58
40954;BME280;26686;50.130;8.710;2023-02-13T20:10:28;102117.66;;;9.00;59.66
40954;BME280;26686;50.130;8.710;2023-02-13T20:15:30;102126.81;;;8.95;59.85
40954;BME280;26686;50.130;8.710;2023-02-13T20:20:32;102143.78;;;8.91;60.10
40954;BME280;26686;50.130;8.710;2023-02-13T20:25:34;102132.88;;;8.76;60.14
40954;BME280;26686;50.130;8.710;2023-02-13T20:30:39;102140.34;;;8.68;61.41
40954;BME280;26686;50.130;8.710;2023-02-13T20:35:41;102142.44;;;8.60;61.82
40954;BME280;26686;50.130;8.710;2023-02-13T20:40:42;102145.22;;;8.57;62.43
40954;BME280;26686;50.130;8.710;2023-02-13T20:45:43;102121.94;;;8.41;62.72
40954;BME280;26686;50.130;8.710;2023-02-13T20:50:55;102148.38;;;8.44;62.86
40954;BME280;26686;50.130;8.710;2023-02-13T21:06:13;102134.78;;;8.30;63.42
40954;BME280;26686;50.130;8.710;2023-02-13T21:11:15;102133.44;;;8.20;63.76
40954;BME280;26686;50.130;8.710;2023-02-13T21:16:19;102136.44;;;8.10;64.52
40954;BME280;26686;50.130;8.710;2023-02-13T21:21:23;102131.97;;;8.12;64.74
40954;BME280;26686;50.130;8.710;2023-02-13T21:26:25;102127.75;;;8.07;65.09
40954;BME280;26686;50.130;8.710;2023-02-13T21:31:30;102124.50;;;8.00;65.32
40954;BME280;26686;50.130;8.710;2023-02-13T21:36:35;102110.97;;;7.84;65.76
40954;BME280;26686;50.130;8.710;2023-02-13T21:41:44;102127.56;;;7.89;66.04
40954;BME280;26686;50.130;8.710;2023-02-13T21:46:46;102129.47;;;7.86;65.66
40954;BME280;26686;50.130;8.710;2023-02-13T21:51:47;102113.22;;;7.71;65.97
40954;BME280;26686;50.130;8.710;2023-02-13T21:56:49;102106.41;;;7.66;65.76
40954;BME280;26686;50.130;8.710;2023-02-13T22:01:50;102101.59;;;7.52;66.13
40954;BME280;26686;50.130;8.710;2023-02-13T22:06:54;102120.56;;;7.65;66.14
40954;BME280;26686;50.130;8.710;2023-02-13T22:11:55;102107.75;;;7.54;66.06
40954;BME280;26686;50.130;8.710;2023-02-13T22:16:57;102102.56;;;7.51;66.57
40954;BME280;26686;50.130;8.710;2023-02-13T22:21:58;102061.31;;;7.20;67.20
40954;BME280;26686;50.130;8.710;2023-02-13T22:26:59;102116.06;;;7.43;67.04
40954;BME280;26686;50.130;8.710;2023-02-13T22:32:01;102117.31;;;7.34;67.72
40954;BME280;26686;50.130;8.710;2023-02-13T22:37:03;102106.63;;;7.12;67.90
40954;BME280;26686;50.130;8.710;2023-02-13T22:42:04;102116.13;;;7.18;68.15
40954;BME280;26686;50.130;8.710;2023-02-13T22:47:05;102106.69;;;7.11;68.18
40954;BME280;26686;50.130;8.710;2023-02-13T22:52:08;102093.78;;;7.01;68.66
40954;BME280;26686;50.130;8.710;2023-02-13T22:57:11;102114.84;;;7.04;68.66
40954;BME280;26686;50.130;8.710;2023-02-13T23:02:12;102113.38;;;6.96;68.65
40954;BME280;26686;50.130;8.710;2023-02-13T23:07:14;102118.13;;;6.86;69.02
40954;BME280;26686;50.130;8.710;2023-02-13T23:12:18;102118.19;;;6.84;69.16
40954;BME280;26686;50.130;8.710;2023-02-13T23:17:40;102114.91;;;6.78;68.80
40954;BME280;26686;50.130;8.710;2023-02-13T23:23:00;102125.53;;;6.76;69.33
40954;BME280;26686;50.130;8.710;2023-02-13T23:28:05;102116.84;;;6.72;68.68
40954;BME280;26686;50.130;8.710;2023-02-13T23:33:06;102121.31;;;6.70;69.13
40954;BME280;26686;50.130;8.710;2023-02-13T23:38:08;102112.94;;;6.58;69.71
40954;BME280;26686;50.130;8.710;2023-02-13T23:43:09;102110.59;;;6.48;69.74
40954;BME280;26686;50.130;8.710;2023-02-13T23:48:11;102121.22;;;6.47;69.68
40954;BME280;26686;50.130;8.710;2023-02-13T23:53:12;102125.75;;;6.43;69.81
40954;BME280;26686;50.130;8.710;2023-02-13T23:58:14;102127.72;;;6.38;69.86
